Apodaca, New Mexico
Current Conditions -  °F | °C
As of 10:35 PM on Tuesday 21 Oct 2014 (Local Time) from KSKX Reporting Station
Scattered Clouds Scattered Clouds  
Wind Chill: 46°   Ceiling: Unl
Heat Index: 46°   Visibility: 10mi
Dew Point: 37°   Wind: 3mph
Humidity: 71%   Direction: 110°ESE
Pressure: 30.18"   Gusts: NA
Location:  36.1644°N, 105.863°W
Report Text: KSKX 220435Z AUTO 11003KT 10SM FEW045 SCT080 08/03 A3018 RMK AO1
Loading
Personal Weather Stations






























Interactive Weather Map
Tropical Storm Tracking
New forecast layout! Learn more

10-Day Weather Forecast

Advertisements
Track Severe Weather on mobile